Time;durP1;ratioP1;P1;durP2;ratioP2;P2;SDS_P1;SDS_P2;PMS_P1;PMS_P2;Temp;Humidity;BMP_temperature;BMP_pressure;BME280_temperature;BME280_humidity;BME280_pressure;Samples;Min_cycle;Max_cycle;Signal;HPM_P1;HPM_P2
2023/01/17 00:00:49;;;;;;;;;;;;;;;;;;6262105;22;20346;-82
2023/01/17 00:03:15;;;;;;;;;;;;;;;;;;6261414;22;20331;-82
2023/01/17 00:11:11;;;;;;;;;;;;;;;;;;6287153;22;19919;-82
2023/01/17 00:13:39;;;;;;;;;;;;;;;;;;6265100;22;19961;-82
2023/01/17 00:16:08;;;;;;;;;;;;;;;;;;6286563;22;20040;-82
2023/01/17 00:18:34;;;;;;;;;;;;;;;;;;6288373;22;19915;-82
2023/01/17 00:26:29;;;;;;;;;;;;;;;;;;6288314;22;19951;-82
2023/01/17 01:35:44;;;;;;;;;;;;;;;;;;6287368;22;19950;-82
2023/01/17 01:38:10;;;;;;;;;;;;;;;;;;6261627;22;20326;-82
2023/01/17 01:40:39;;;;;;;;;;;;;;;;;;6264630;22;19992;-82
2023/01/17 01:43:05;;;;;;;;;;;;;;;;;;6259479;22;19960;-82
2023/01/17 01:45:31;;;;;;;;;;;;;;;;;;6262850;22;19991;-82
2023/01/17 01:47:57;;;;;;;;;;;;;;;;;;6288082;22;19919;-82
2023/01/17 01:50:23;;;;;;;;;;;;;;;;;;6285823;22;19922;-82
2023/01/17 01:52:49;;;;;;;;;;;;;;;;;;6290236;22;19918;-82
2023/01/17 01:55:25;;;;;;;;;;;;;;;;;;6261943;22;20240;-83
2023/01/17 01:57:54;;;;;;;;;;;;;;;;;;6237241;22;19985;-82
2023/01/17 02:00:23;;;;;;;;;;;;;;;;;;6286538;22;20025;-83
2023/01/17 02:06:04;;;;;;;;;;;;;;;;;;6297555;22;20244;-82
2023/01/17 02:08:30;;;;;;;;;;;;;;;;;;6265155;22;20379;-83
2023/01/17 02:10:56;;;;;;;;;;;;;;;;;;6264037;22;19923;-83
2023/01/17 02:13:22;;;;;;;;;;;;;;;;;;6262112;22;20379;-83
2023/01/17 02:15:48;;;;;;;;;;;;;;;;;;6291465;22;19992;-83
2023/01/17 02:18:14;;;;;;;;;;;;;;;;;;6261519;22;19919;-83
2023/01/17 02:20:40;;;;;;;;;;;;;;;;;;6259900;22;20224;-83
2023/01/17 02:23:06;;;;;;;;;;;;;;;;;;6262169;22;19970;-83
2023/01/17 02:35:15;;;;;;;;;;;;;;;;;;6117111;23;19921;-85
2023/01/17 02:37:41;;;;;;;;;;;;;;;;;;6084518;23;20653;-85
2023/01/17 02:40:07;;;;;;;;;;;;;;;;;;6174093;22;20037;-85
2023/01/17 02:42:33;;;;;;;;;;;;;;;;;;6296123;22;19954;-85
2023/01/17 02:44:59;;;;;;;;;;;;;;;;;;6298590;22;19922;-85
2023/01/17 02:47:25;;;;;;;;;;;;;;;;;;6273005;22;19925;-85
2023/01/17 02:49:52;;;;;;;;;;;;;;;;;;6272349;22;19914;-84
2023/01/17 02:52:18;;;;;;;;;;;;;;;;;;6268753;22;19914;-85
2023/01/17 02:54:47;;;;;;;;;;;;;;;;;;6273932;22;20022;-85
2023/01/17 02:57:13;;;;;;;;;;;;;;;;;;6295562;22;19927;-86
2023/01/17 02:59:39;;;;;;;;;;;;;;;;;;6300224;22;19929;-86
2023/01/17 03:02:04;;;;;;;;;;;;;;;;;;6297799;22;19918;-86
2023/01/17 03:04:30;;;;;;;;;;;;;;;;;;6275920;22;19926;-86
2023/01/17 03:06:56;;;;;;;;;;;;;;;;;;6273301;22;19918;-86
2023/01/17 03:09:22;;;;;;;;;;;;;;;;;;6289216;22;19922;-86
2023/01/17 03:11:48;;;;;;;;;;;;;;;;;;6296263;22;19919;-86
2023/01/17 03:14:14;;;;;;;;;;;;;;;;;;6298052;22;19942;-86
2023/01/17 03:16:40;;;;;;;;;;;;;;;;;;6274680;22;19918;-86
2023/01/17 03:19:08;;;;;;;;;;;;;;;;;;6267171;22;19994;-86
2023/01/17 03:21:34;;;;;;;;;;;;;;;;;;6297634;22;19929;-86
2023/01/17 03:24:01;;;;;;;;;;;;;;;;;;6270710;22;20255;-86
2023/01/17 03:26:27;;;;;;;;;;;;;;;;;;6325230;22;19967;-86
2023/01/17 03:28:53;;;;;;;;;;;;;;;;;;6273237;22;19919;-86
2023/01/17 03:31:19;;;;;;;;;;;;;;;;;;6272082;22;20429;-87
2023/01/17 03:33:45;;;;;;;;;;;;;;;;;;6272228;22;19919;-88
2023/01/17 03:36:11;;;;;;;;;;;;;;;;;;6268325;22;19926;-87
2023/01/17 03:38:37;;;;;;;;;;;;;;;;;;6274145;22;20036;-87
2023/01/17 03:41:03;;;;;;;;;;;;;;;;;;6271075;22;19915;-87
2023/01/17 03:43:29;;;;;;;;;;;;;;;;;;6301273;22;19915;-87
2023/01/17 03:45:55;;;;;;;;;;;;;;;;;;6299213;22;19918;-87
2023/01/17 03:48:21;;;;;;;;;;;;;;;;;;6296043;22;20001;-88
2023/01/17 03:50:47;;;;;;;;;;;;;;;;;;6296690;22;19919;-88
2023/01/17 03:53:13;;;;;;;;;;;;;;;;;;6297098;22;19922;-88
2023/01/17 03:55:39;;;;;;;;;;;;;;;;;;6327995;22;19918;-87
2023/01/17 03:58:05;;;;;;;;;;;;;;;;;;6272521;22;19923;-88
2023/01/17 04:00:31;;;;;;;;;;;;;;;;;;6299515;22;20276;-87
2023/01/17 04:02:57;;;;;;;;;;;;;;;;;;6296770;22;19930;-87
2023/01/17 04:05:22;;;;;;;;;;;;;;;;;;6296091;22;19954;-86
2023/01/17 04:07:48;;;;;;;;;;;;;;;;;;6325148;22;19940;-87
2023/01/17 04:10:15;;;;;;;;;;;;;;;;;;6323973;22;19914;-87
2023/01/17 04:12:41;;;;;;;;;;;;;;;;;;6271338;22;19919;-87
2023/01/17 04:15:07;;;;;;;;;;;;;;;;;;6270220;22;19944;-87
2023/01/17 04:17:34;;;;;;;;;;;;;;;;;;6297000;22;19919;-87
2023/01/17 04:20:00;;;;;;;;;;;;;;;;;;6271383;22;19919;-88
2023/01/17 04:22:26;;;;;;;;;;;;;;;;;;6298917;22;19930;-87
2023/01/17 04:24:53;;;;;;;;;;;;;;;;;;6270878;22;19914;-87
2023/01/17 04:27:19;;;;;;;;;;;;;;;;;;6325274;22;19914;-87
2023/01/17 04:29:45;;;;;;;;;;;;;;;;;;6300882;22;19933;-87
2023/01/17 04:32:11;;;;;;;;;;;;;;;;;;6296568;22;19981;-87
2023/01/17 04:34:37;;;;;;;;;;;;;;;;;;6327891;22;19918;-87
2023/01/17 04:37:03;;;;;;;;;;;;;;;;;;6271768;22;20005;-87
2023/01/17 04:39:29;;;;;;;;;;;;;;;;;;6271581;22;19964;-87
2023/01/17 04:41:55;;;;;;;;;;;;;;;;;;6297893;22;19923;-87
2023/01/17 04:44:21;;;;;;;;;;;;;;;;;;6296900;22;19925;-88
2023/01/17 04:46:47;;;;;;;;;;;;;;;;;;6300222;22;20396;-87
2023/01/17 04:49:13;;;;;;;;;;;;;;;;;;6298828;22;19918;-87
2023/01/17 04:51:39;;;;;;;;;;;;;;;;;;6298558;22;19964;-87
2023/01/17 04:54:04;;;;;;;;;;;;;;;;;;6296393;22;20138;-87
2023/01/17 04:56:30;;;;;;;;;;;;;;;;;;6272492;22;20331;-87
2023/01/17 04:58:57;;;;;;;;;;;;;;;;;;6271471;22;19918;-88
2023/01/17 05:01:23;;;;;;;;;;;;;;;;;;6269853;22;19926;-88
2023/01/17 05:03:49;;;;;;;;;;;;;;;;;;6297290;22;20293;-87
2023/01/17 05:06:14;;;;;;;;;;;;;;;;;;6293063;22;19960;-87
2023/01/17 05:08:40;;;;;;;;;;;;;;;;;;6269307;22;19926;-87
2023/01/17 05:11:06;;;;;;;;;;;;;;;;;;6295397;22;20023;-87
2023/01/17 05:13:32;;;;;;;;;;;;;;;;;;6274004;22;19933;-87
2023/01/17 05:16:01;;;;;;;;;;;;;;;;;;6327284;22;19918;-88
2023/01/17 05:18:27;;;;;;;;;;;;;;;;;;6296422;22;19925;-87
2023/01/17 05:20:53;;;;;;;;;;;;;;;;;;6299394;22;19918;-88
2023/01/17 05:23:18;;;;;;;;;;;;;;;;;;6295653;22;20235;-87
2023/01/17 05:25:44;;;;;;;;;;;;;;;;;;6301064;22;19929;-87
2023/01/17 05:28:11;;;;;;;;;;;;;;;;;;6298496;22;20366;-88
2023/01/17 05:30:37;;;;;;;;;;;;;;;;;;6301418;22;19915;-87
2023/01/17 05:33:02;;;;;;;;;;;;;;;;;;6295314;22;20414;-88
2023/01/17 05:35:29;;;;;;;;;;;;;;;;;;6326893;22;19997;-87
2023/01/17 05:37:55;;;;;;;;;;;;;;;;;;6298294;22;20246;-87
2023/01/17 05:40:20;;;;;;;;;;;;;;;;;;6296348;22;19919;-87
2023/01/17 05:42:46;;;;;;;;;;;;;;;;;;6298213;22;19922;-87
2023/01/17 05:45:15;;;;;;;;;;;;;;;;;;6296108;22;19971;-87
2023/01/17 05:47:41;;;;;;;;;;;;;;;;;;6297380;22;20235;-87
2023/01/17 05:50:07;;;;;;;;;;;;;;;;;;6294992;22;19925;-87
2023/01/17 05:52:33;;;;;;;;;;;;;;;;;;6273849;22;19922;-87
2023/01/17 05:54:59;;;;;;;;;;;;;;;;;;6275524;22;19942;-88
2023/01/17 05:57:25;;;;;;;;;;;;;;;;;;6295117;22;20308;-87
2023/01/17 05:59:51;;;;;;;;;;;;;;;;;;6295448;22;19958;-87
2023/01/17 06:02:17;;;;;;;;;;;;;;;;;;6290671;22;20308;-87
2023/01/17 06:04:43;;;;;;;;;;;;;;;;;;6274058;22;19919;-88
2023/01/17 06:07:09;;;;;;;;;;;;;;;;;;6296111;22;19919;-87
2023/01/17 06:09:35;;;;;;;;;;;;;;;;;;6271055;22;20366;-87
2023/01/17 06:12:01;;;;;;;;;;;;;;;;;;6324760;22;19958;-87
2023/01/17 06:14:27;;;;;;;;;;;;;;;;;;6299477;22;19919;-82
2023/01/17 06:16:53;;;;;;;;;;;;;;;;;;6328859;22;20351;-82
2023/01/17 06:19:19;;;;;;;;;;;;;;;;;;6268836;22;20294;-82
2023/01/17 06:21:44;;;;;;;;;;;;;;;;;;6271778;22;19918;-82
2023/01/17 06:24:10;;;;;;;;;;;;;;;;;;6270128;22;19949;-83
2023/01/17 06:26:36;;;;;;;;;;;;;;;;;;6298905;22;20273;-82
2023/01/17 06:29:02;;;;;;;;;;;;;;;;;;6272130;22;19968;-83
2023/01/17 06:31:28;;;;;;;;;;;;;;;;;;6274889;22;19928;-82
2023/01/17 06:33:54;;;;;;;;;;;;;;;;;;6274677;22;19941;-83
2023/01/17 06:36:20;;;;;;;;;;;;;;;;;;6298634;22;20436;-83
2023/01/17 06:38:46;;;;;;;;;;;;;;;;;;6274879;22;19919;-82
2023/01/17 06:41:12;;;;;;;;;;;;;;;;;;6298645;22;19922;-82
2023/01/17 06:43:38;;;;;;;;;;;;;;;;;;6300110;22;19918;-83
2023/01/17 06:46:04;;;;;;;;;;;;;;;;;;6272424;22;19914;-83
2023/01/17 06:48:30;;;;;;;;;;;;;;;;;;6299055;22;19918;-82
2023/01/17 06:50:56;;;;;;;;;;;;;;;;;;6271055;22;19996;-82
2023/01/17 06:53:22;;;;;;;;;;;;;;;;;;6265852;22;19929;-82
2023/01/17 06:55:48;;;;;;;;;;;;;;;;;;6295716;22;19989;-82
2023/01/17 06:58:14;;;;;;;;;;;;;;;;;;6270943;22;19922;-82
2023/01/17 07:00:40;;;;;;;;;;;;;;;;;;6269881;22;19918;-83
2023/01/17 07:03:06;;;;;;;;;;;;;;;;;;6295947;22;19922;-83
2023/01/17 07:05:32;;;;;;;;;;;;;;;;;;6273135;22;20251;-83
2023/01/17 07:11:02;;;;;;;;;;;;;;;;;;6306966;22;19940;-82
2023/01/17 07:13:39;;;;;;;;;;;;;;;;;;6297907;22;19925;-83
2023/01/17 07:16:35;;;;;;;;;;;;;;;;;;6294259;22;20379;-82
2023/01/17 07:19:13;;;;;;;;;;;;;;;;;;6325737;22;19980;-83
2023/01/17 07:21:42;;;;;;;;;;;;;;;;;;6269966;22;19968;-83
2023/01/17 07:27:34;;;;;;;;;;;;;;;;;;;;;
2023/01/17 07:55:25;;;;;;;;;;;;;;;;;;;;;
2023/01/17 08:07:09;;;;;;;;;;;;;;;;;;6326485;22;20010;-86
2023/01/17 08:09:35;;;;;;;;;;;;;;;;;;6274417;22;20246;-86
2023/01/17 08:12:03;;;;;;;;;;;;;;;;;;6299049;22;19997;-85
2023/01/17 08:14:29;;;;;;;;;;;;;;;;;;6275131;22;19925;-86
2023/01/17 08:16:58;;;;;;;;;;;;;;;;;;6274991;22;19954;-86
2023/01/17 08:19:24;;;;;;;;;;;;;;;;;;6272877;22;19966;-87
2023/01/17 08:21:50;;;;;;;;;;;;;;;;;;6277832;22;20019;-86
2023/01/17 08:24:27;;;;;;;;;;;;;;;;;;6273225;22;20026;-86
2023/01/17 08:26:56;;;;;;;;;;;;;;;;;;6275160;22;19922;-86
2023/01/17 08:29:22;;;;;;;;;;;;;;;;;;6295118;22;20374;-87
2023/01/17 08:31:50;;;;;;;;;;;;;;;;;;6274737;22;19922;-87
2023/01/17 08:34:16;;;;;;;;;;;;;;;;;;6299832;22;19914;-87
2023/01/17 08:36:43;;;;;;;;;;;;;;;;;;6301802;22;19918;-87
2023/01/17 08:39:20;;;;;;;;;;;;;;;;;;6299367;22;19914;-87
2023/01/17 08:41:46;;;;;;;;;;;;;;;;;;6264826;22;19923;-87
2023/01/17 08:44:18;;;;;;;;;;;;;;;;;;6235286;22;19938;-87
2023/01/17 08:46:49;;;;;;;;;;;;;;;;;;6238356;22;19915;-87
2023/01/17 08:49:26;;;;;;;;;;;;;;;;;;6233862;22;19919;-87
2023/01/17 08:51:52;;;;;;;;;;;;;;;;;;6213055;22;19915;-87
2023/01/17 08:54:21;;;;;;;;;;;;;;;;;;6237172;22;19919;-87
2023/01/17 08:56:56;;;;;;;;;;;;;;;;;;6241331;22;19926;-87
2023/01/17 08:59:26;;;;;;;;;;;;;;;;;;6236293;22;19915;-87
2023/01/17 09:02:05;;;;;;;;;;;;;;;;;;6236323;22;20359;-85
2023/01/17 09:04:33;;;;;;;;;;;;;;;;;;6236705;22;19926;-87
2023/01/17 09:07:06;;;;;;;;;;;;;;;;;;6235549;22;19930;-87
2023/01/17 09:09:34;;;;;;;;;;;;;;;;;;6211342;22;19926;-87
2023/01/17 09:12:03;;;;;;;;;;;;;;;;;;6217519;22;20296;-87
2023/01/17 09:14:32;;;;;;;;;;;;;;;;;;6271750;22;20366;-87
2023/01/17 09:16:58;;;;;;;;;;;;;;;;;;6269855;22;19962;-87
2023/01/17 09:19:30;;;;;;;;;;;;;;;;;;6265880;22;19914;-87
2023/01/17 09:22:13;;;;;;;;;;;;;;;;;;6293474;22;20278;-87
2023/01/17 09:24:57;;;;;;;;;;;;;;;;;;6288571;22;19997;-88
2023/01/17 09:27:34;;;;;;;;;;;;;;;;;;6269359;22;20011;-87
2023/01/17 09:30:03;;;;;;;;;;;;;;;;;;6268153;22;20016;-87
2023/01/17 09:32:35;;;;;;;;;;;;;;;;;;6294825;22;19918;-87
2023/01/17 09:35:04;;;;;;;;;;;;;;;;;;6290613;22;20349;-87
2023/01/17 09:37:32;;;;;;;;;;;;;;;;;;6270052;22;19937;-87
2023/01/17 09:40:13;;;;;;;;;;;;;;;;;;6292767;22;20347;-87
2023/01/17 09:42:39;;;;;;;;;;;;;;;;;;6266922;22;19930;-88
2023/01/17 09:45:08;;;;;;;;;;;;;;;;;;6267855;22;19945;-88
2023/01/17 09:47:40;;;;;;;;;;;;;;;;;;6271108;22;20293;-88
2023/01/17 09:50:14;;;;;;;;;;;;;;;;;;6268927;22;19981;-87
2023/01/17 09:52:44;;;;;;;;;;;;;;;;;;6295303;22;19915;-87
2023/01/17 09:55:12;;;;;;;;;;;;;;;;;;6294212;22;20378;-90
2023/01/17 09:57:38;;;;;;;;;;;;;;;;;;6270279;22;20344;-90
2023/01/17 10:00:07;;;;;;;;;;;;;;;;;;6267902;22;20252;-90
2023/01/17 10:05:37;;;;;;;;;;;;;;;;;;6308827;22;19917;-90
2023/01/17 10:08:06;;;;;;;;;;;;;;;;;;6267694;22;19927;-89
2023/01/17 10:13:33;;;;;;;;;;;;;;;;;;6230371;22;20260;-83
2023/01/17 10:16:05;;;;;;;;;;;;;;;;;;6269176;22;19914;-83
2023/01/17 10:18:34;;;;;;;;;;;;;;;;;;6270152;22;20019;-83
2023/01/17 10:21:01;;;;;;;;;;;;;;;;;;6268078;22;19918;-83
2023/01/17 10:23:27;;;;;;;;;;;;;;;;;;6269595;22;19984;-83
2023/01/17 10:25:53;;;;;;;;;;;;;;;;;;6269889;22;20343;-83
2023/01/17 10:28:19;;;;;;;;;;;;;;;;;;6267590;22;20434;-83
2023/01/17 10:30:47;;;;;;;;;;;;;;;;;;6270842;22;19921;-83
2023/01/17 10:33:13;;;;;;;;;;;;;;;;;;6293648;22;19941;-83
2023/01/17 10:35:45;;;;;;;;;;;;;;;;;;6295052;22;19988;-82
2023/01/17 10:38:11;;;;;;;;;;;;;;;;;;6295495;22;19986;-83
2023/01/17 10:40:39;;;;;;;;;;;;;;;;;;6298065;22;19950;-83
2023/01/17 10:43:05;;;;;;;;;;;;;;;;;;6268015;22;20312;-82
2023/01/17 10:45:31;;;;;;;;;;;;;;;;;;6272084;22;19926;-82
2023/01/17 10:50:36;;;;;;;;;;;;;;;;;;6310145;22;19927;-82
2023/01/17 10:53:03;;;;;;;;;;;;;;;;;;6270428;22;19915;-82
2023/01/17 10:55:29;;;;;;;;;;;;;;;;;;6300953;22;19984;-82
2023/01/17 10:57:57;;;;;;;;;;;;;;;;;;6276433;22;20369;-87
2023/01/17 11:00:23;;;;;;;;;;;;;;;;;;6275479;22;19915;-87
2023/01/17 11:02:49;;;;;;;;;;;;;;;;;;6274823;22;19934;-87
2023/01/17 11:05:15;;;;;;;;;;;;;;;;;;6273259;22;19941;-87
2023/01/17 11:07:42;;;;;;;;;;;;;;;;;;6277846;22;19914;-87
2023/01/17 11:10:08;;;;;;;;;;;;;;;;;;6274642;22;19922;-87
2023/01/17 11:12:34;;;;;;;;;;;;;;;;;;6301807;22;19953;-87
2023/01/17 11:15:00;;;;;;;;;;;;;;;;;;6299367;22;19960;-87
2023/01/17 11:17:26;;;;;;;;;;;;;;;;;;6277845;22;19921;-87
2023/01/17 11:19:53;;;;;;;;;;;;;;;;;;6275928;22;19914;-87
2023/01/17 11:22:19;;;;;;;;;;;;;;;;;;6299232;22;19927;-87
2023/01/17 11:24:45;;;;;;;;;;;;;;;;;;6276641;22;19972;-87
2023/01/17 11:27:11;;;;;;;;;;;;;;;;;;6273724;22;19919;-87
2023/01/17 11:32:26;;;;;;;;;;;;;;;;;;6301993;22;19934;-87
2023/01/17 11:34:52;;;;;;;;;;;;;;;;;;6275884;22;19918;-87
2023/01/17 11:37:18;;;;;;;;;;;;;;;;;;6272852;22;20304;-86
2023/01/17 11:39:46;;;;;;;;;;;;;;;;;;6276797;22;20336;-87
2023/01/17 11:42:12;;;;;;;;;;;;;;;;;;6301049;22;19930;-86
2023/01/17 11:44:38;;;;;;;;;;;;;;;;;;6275462;22;19952;-87
2023/01/17 11:47:04;;;;;;;;;;;;;;;;;;6299109;22;19915;-87
2023/01/17 11:49:33;;;;;;;;;;;;;;;;;;6274051;22;19918;-87
2023/01/17 11:52:02;;;;;;;;;;;;;;;;;;6272612;22;19932;-87
2023/01/17 11:54:28;;;;;;;;;;;;;;;;;;6275260;22;20216;-87
2023/01/17 11:56:54;;;;;;;;;;;;;;;;;;6299582;22;19919;-87
2023/01/17 11:59:20;;;;;;;;;;;;;;;;;;6271554;22;19951;-87
2023/01/17 12:01:46;;;;;;;;;;;;;;;;;;6274075;22;19918;-87
2023/01/17 12:04:12;;;;;;;;;;;;;;;;;;6300279;22;19925;-87
2023/01/17 12:06:38;;;;;;;;;;;;;;;;;;6299770;22;19923;-87
2023/01/17 12:09:04;;;;;;;;;;;;;;;;;;6273934;22;19918;-87
2023/01/17 12:11:30;;;;;;;;;;;;;;;;;;6300075;22;19924;-87
2023/01/17 12:14:00;;;;;;;;;;;;;;;;;;6301041;22;19981;-88
2023/01/17 12:16:29;;;;;;;;;;;;;;;;;;6300103;22;19994;-87
2023/01/17 12:18:55;;;;;;;;;;;;;;;;;;6276452;22;19950;-87
2023/01/17 12:21:21;;;;;;;;;;;;;;;;;;6299327;22;19915;-86
2023/01/17 12:23:47;;;;;;;;;;;;;;;;;;6276438;22;20003;-87
2023/01/17 12:26:18;;;;;;;;;;;;;;;;;;6272804;22;19918;-87
2023/01/17 12:28:45;;;;;;;;;;;;;;;;;;6276630;22;20350;-87
2023/01/17 12:31:14;;;;;;;;;;;;;;;;;;6273461;22;19919;-81
2023/01/17 12:33:40;;;;;;;;;;;;;;;;;;6301712;22;20293;-81
2023/01/17 12:36:16;;;;;;;;;;;;;;;;;;6298029;22;19922;-81
2023/01/17 12:38:42;;;;;;;;;;;;;;;;;;6301009;22;19919;-81
2023/01/17 12:41:09;;;;;;;;;;;;;;;;;;6272954;22;19998;-81
2023/01/17 12:43:36;;;;;;;;;;;;;;;;;;6275047;22;19997;-81
2023/01/17 12:46:02;;;;;;;;;;;;;;;;;;6273569;22;19918;-81
2023/01/17 12:48:28;;;;;;;;;;;;;;;;;;6274339;22;19925;-81
2023/01/17 12:50:54;;;;;;;;;;;;;;;;;;6274214;22;20355;-81
2023/01/17 12:53:20;;;;;;;;;;;;;;;;;;6297800;22;20453;-81
2023/01/17 12:55:46;;;;;;;;;;;;;;;;;;6301231;22;19918;-81
2023/01/17 13:01:23;;;;;;;;;;;;;;;;;;6311895;22;19918;-80
2023/01/17 13:03:49;;;;;;;;;;;;;;;;;;6300113;22;19923;-81
2023/01/17 13:06:15;;;;;;;;;;;;;;;;;;6271169;22;20352;-81
2023/01/17 13:08:41;;;;;;;;;;;;;;;;;;6272425;22;19918;-81
2023/01/17 13:11:07;;;;;;;;;;;;;;;;;;6269773;22;19926;-81
2023/01/17 13:13:36;;;;;;;;;;;;;;;;;;6275096;22;19918;-81
2023/01/17 13:16:02;;;;;;;;;;;;;;;;;;6272039;22;19915;-88
2023/01/17 13:18:34;;;;;;;;;;;;;;;;;;6272944;22;19954;-88
2023/01/17 13:21:03;;;;;;;;;;;;;;;;;;6270709;22;20386;-88
2023/01/17 13:23:29;;;;;;;;;;;;;;;;;;6298523;22;19992;-88
2023/01/17 13:25:56;;;;;;;;;;;;;;;;;;6302266;22;19918;-88
2023/01/17 13:28:22;;;;;;;;;;;;;;;;;;6271015;22;19986;-88
2023/01/17 13:30:48;;;;;;;;;;;;;;;;;;6274896;22;19926;-88
2023/01/17 13:33:14;;;;;;;;;;;;;;;;;;6271508;22;19922;-88
2023/01/17 13:35:43;;;;;;;;;;;;;;;;;;6273115;22;19922;-88
2023/01/17 13:38:09;;;;;;;;;;;;;;;;;;6295900;22;20247;-89
2023/01/17 13:40:36;;;;;;;;;;;;;;;;;;6273723;22;19919;-88
2023/01/17 13:43:02;;;;;;;;;;;;;;;;;;6273327;22;19926;-88
2023/01/17 13:45:28;;;;;;;;;;;;;;;;;;6274074;22;20297;-89
2023/01/17 13:47:54;;;;;;;;;;;;;;;;;;6300029;22;19959;-89
2023/01/17 13:50:20;;;;;;;;;;;;;;;;;;6270463;22;20174;-89
2023/01/17 13:52:46;;;;;;;;;;;;;;;;;;6276578;22;19918;-89
2023/01/17 13:55:12;;;;;;;;;;;;;;;;;;6272052;22;19985;-89
2023/01/17 13:57:42;;;;;;;;;;;;;;;;;;6269978;22;20220;-89
2023/01/17 14:00:08;;;;;;;;;;;;;;;;;;6296929;22;20405;-88
2023/01/17 14:02:34;;;;;;;;;;;;;;;;;;6274214;22;19923;-89
2023/01/17 14:05:00;;;;;;;;;;;;;;;;;;6273679;22;19945;-89
2023/01/17 14:07:26;;;;;;;;;;;;;;;;;;6275771;22;19941;-91
2023/01/17 14:09:52;;;;;;;;;;;;;;;;;;6299743;22;19914;-91
2023/01/17 14:12:28;;;;;;;;;;;;;;;;;;6301216;22;19922;-91
2023/01/17 14:14:56;;;;;;;;;;;;;;;;;;6273900;22;20268;-92
2023/01/17 14:17:24;;;;;;;;;;;;;;;;;;6271635;22;19958;-93
2023/01/17 14:19:50;;;;;;;;;;;;;;;;;;6273774;22;19946;-93
2023/01/17 14:22:16;;;;;;;;;;;;;;;;;;6273468;22;20313;-91
2023/01/17 14:24:42;;;;;;;;;;;;;;;;;;6273618;22;19950;-91
2023/01/17 14:27:08;;;;;;;;;;;;;;;;;;6271521;22;19957;-92
2023/01/17 14:29:34;;;;;;;;;;;;;;;;;;6273577;22;19919;-92
2023/01/17 14:32:00;;;;;;;;;;;;;;;;;;6272987;22;19915;-92
2023/01/17 14:34:29;;;;;;;;;;;;;;;;;;6300413;22;19915;-92
2023/01/17 14:36:55;;;;;;;;;;;;;;;;;;6275118;22;19926;-92
2023/01/17 14:39:21;;;;;;;;;;;;;;;;;;6271798;22;19918;-92
2023/01/17 14:41:47;;;;;;;;;;;;;;;;;;6274542;22;19944;-92
2023/01/17 14:44:13;;;;;;;;;;;;;;;;;;6272468;22;19919;-93
2023/01/17 14:46:39;;;;;;;;;;;;;;;;;;6273825;22;19919;-93
2023/01/17 14:49:05;;;;;;;;;;;;;;;;;;6273068;22;19918;-92
2023/01/17 14:51:36;;;;;;;;;;;;;;;;;;6271895;22;19922;-93
2023/01/17 14:54:08;;;;;;;;;;;;;;;;;;6274354;22;19954;-95
2023/01/17 14:56:43;;;;;;;;;;;;;;;;;;6281671;22;20247;-94
2023/01/17 14:59:20;;;;;;;;;;;;;;;;;;6276080;22;19919;-95
2023/01/17 15:01:52;;;;;;;;;;;;;;;;;;6276534;22;19923;-95
2023/01/17 15:04:27;;;;;;;;;;;;;;;;;;6273714;22;19948;-94
2023/01/17 15:06:53;;;;;;;;;;;;;;;;;;6291254;22;19972;-94
2023/01/17 15:09:22;;;;;;;;;;;;;;;;;;6269523;22;20611;-93
2023/01/17 15:14:42;;;;;;;;;;;;;;;;;;6304240;22;19964;-94
2023/01/17 15:17:23;;;;;;;;;;;;;;;;;;;;;
2023/01/17 15:20:00;;;;;;;;;;;;;;;;;;6302308;22;19919;-93
2023/01/17 15:22:28;;;;;;;;;;;;;;;;;;6275346;22;20004;-94
2023/01/17 15:25:00;;;;;;;;;;;;;;;;;;6277039;22;19926;-95
2023/01/17 15:27:29;;;;;;;;;;;;;;;;;;6275948;22;20251;-94
2023/01/17 15:30:00;;;;;;;;;;;;;;;;;;6273468;22;19918;-93
2023/01/17 15:32:30;;;;;;;;;;;;;;;;;;6299143;22;19915;-94
2023/01/17 15:34:56;;;;;;;;;;;;;;;;;;6273354;22;19964;-93
2023/01/17 15:37:21;;;;;;;;;;;;;;;;;;6268756;22;19987;-93
2023/01/17 15:39:48;;;;;;;;;;;;;;;;;;6264428;22;19993;-91
2023/01/17 15:42:16;;;;;;;;;;;;;;;;;;6292951;22;19961;-92
2023/01/17 15:44:42;;;;;;;;;;;;;;;;;;6271752;22;19953;-92
2023/01/17 15:47:08;;;;;;;;;;;;;;;;;;6267971;22;20346;-91
2023/01/17 15:49:34;;;;;;;;;;;;;;;;;;6271377;22;19919;-92
2023/01/17 15:52:00;;;;;;;;;;;;;;;;;;6268060;22;19979;-90
2023/01/17 15:54:26;;;;;;;;;;;;;;;;;;6296010;22;20238;-92
2023/01/17 15:56:52;;;;;;;;;;;;;;;;;;6271118;22;19914;-92
2023/01/17 15:59:18;;;;;;;;;;;;;;;;;;6269510;22;20306;-91
2023/01/17 16:01:44;;;;;;;;;;;;;;;;;;6271112;22;20243;-91
2023/01/17 16:04:10;;;;;;;;;;;;;;;;;;6268821;22;19926;-91
2023/01/17 16:06:44;;;;;;;;;;;;;;;;;;6271654;22;19918;-91
2023/01/17 16:09:12;;;;;;;;;;;;;;;;;;6268999;22;19919;-92
2023/01/17 16:11:38;;;;;;;;;;;;;;;;;;6272478;22;20337;-91
2023/01/17 16:14:07;;;;;;;;;;;;;;;;;;6294180;22;19933;-81
2023/01/17 16:16:33;;;;;;;;;;;;;;;;;;6265737;22;19919;-82
2023/01/17 16:19:02;;;;;;;;;;;;;;;;;;6267168;22;19933;-83
2023/01/17 16:21:33;;;;;;;;;;;;;;;;;;6265908;22;19925;-83
2023/01/17 16:24:22;;;;;;;;;;;;;;;;;;6321888;22;19926;-82
2023/01/17 16:26:47;;;;;;;;;;;;;;;;;;6291068;22;19972;-82
2023/01/17 16:29:13;;;;;;;;;;;;;;;;;;6264925;22;20302;-83
2023/01/17 16:31:39;;;;;;;;;;;;;;;;;;6292490;22;19993;-82
2023/01/17 16:34:05;;;;;;;;;;;;;;;;;;6265907;22;19914;-83
2023/01/17 16:36:31;;;;;;;;;;;;;;;;;;6267379;22;19918;-83
2023/01/17 16:38:57;;;;;;;;;;;;;;;;;;6292468;22;19948;-83
2023/01/17 16:41:23;;;;;;;;;;;;;;;;;;6265445;22;19952;-82
2023/01/17 16:43:49;;;;;;;;;;;;;;;;;;6263610;22;19957;-83
2023/01/17 16:46:15;;;;;;;;;;;;;;;;;;6261979;22;19918;-82
2023/01/17 16:48:41;;;;;;;;;;;;;;;;;;6264711;22;19987;-83
2023/01/17 16:51:07;;;;;;;;;;;;;;;;;;6262866;22;19926;-82
2023/01/17 16:53:33;;;;;;;;;;;;;;;;;;6317070;22;20000;-82
2023/01/17 16:56:02;;;;;;;;;;;;;;;;;;6290853;22;20039;-82
2023/01/17 16:58:28;;;;;;;;;;;;;;;;;;6292960;22;20000;-82
2023/01/17 17:00:55;;;;;;;;;;;;;;;;;;6262986;22;20261;-82
2023/01/17 17:03:21;;;;;;;;;;;;;;;;;;6285561;22;19979;-83
2023/01/17 17:05:49;;;;;;;;;;;;;;;;;;6292775;22;19986;-82
2023/01/17 17:08:15;;;;;;;;;;;;;;;;;;6260758;22;19926;-82
2023/01/17 17:10:41;;;;;;;;;;;;;;;;;;6266233;22;19954;-83
2023/01/17 17:13:07;;;;;;;;;;;;;;;;;;6261043;22;19986;-83
2023/01/17 17:15:39;;;;;;;;;;;;;;;;;;6289786;22;19918;-82
2023/01/17 17:18:05;;;;;;;;;;;;;;;;;;6258322;22;19989;-82
2023/01/17 17:20:31;;;;;;;;;;;;;;;;;;6265239;22;19999;-82
2023/01/17 17:22:57;;;;;;;;;;;;;;;;;;6265164;22;20366;-82
2023/01/17 17:25:23;;;;;;;;;;;;;;;;;;6252656;22;20373;-83
2023/01/17 17:27:51;;;;;;;;;;;;;;;;;;6264524;22;19918;-82
2023/01/17 17:30:27;;;;;;;;;;;;;;;;;;6269971;22;19919;-82
2023/01/17 17:32:55;;;;;;;;;;;;;;;;;;6293449;22;19945;-82
2023/01/17 17:35:21;;;;;;;;;;;;;;;;;;6266384;22;20341;-82
2023/01/17 17:37:47;;;;;;;;;;;;;;;;;;6265823;22;19919;-82
2023/01/17 17:40:26;;;;;;;;;;;;;;;;;;;;;
2023/01/17 17:46:25;;;;;;;;;;;;;;;;;;;;;
2023/01/17 17:49:26;;;;;;;;;;;;;;;;;;;;;
2023/01/17 17:52:39;;;;;;;;;;;;;;;;;;6204325;23;20022;-83
2023/01/17 17:55:24;;;;;;;;;;;;;;;;;;6285963;22;19926;-83
2023/01/17 17:58:12;;;;;;;;;;;;;;;;;;6295726;22;19949;-83
2023/01/17 18:00:56;;;;;;;;;;;;;;;;;;6265209;22;19930;-82
2023/01/17 18:03:50;;;;;;;;;;;;;;;;;;6283677;22;20017;-83
2023/01/17 18:06:38;;;;;;;;;;;;;;;;;;6299471;22;19923;-83
2023/01/17 18:13:05;;;;;;;;;;;;;;;;;;6203465;23;19950;-83
2023/01/17 18:15:47;;;;;;;;;;;;;;;;;;6165543;23;19962;-83
2023/01/17 18:18:16;;;;;;;;;;;;;;;;;;6279810;22;20221;-83
2023/01/17 18:29:21;;;;;;;;;;;;;;;;;;6287827;22;19954;-84
2023/01/17 18:31:48;;;;;;;;;;;;;;;;;;6270183;22;19922;-84
2023/01/17 18:34:27;;;;;;;;;;;;;;;;;;;;;
2023/01/17 18:36:53;;;;;;;;;;;;;;;;;;6297195;22;19919;-91
2023/01/17 18:39:30;;;;;;;;;;;;;;;;;;6269755;22;19919;-91
2023/01/17 18:42:18;;;;;;;;;;;;;;;;;;6270807;22;19927;-91
2023/01/17 18:44:53;;;;;;;;;;;;;;;;;;6233279;22;20013;-91
2023/01/17 18:47:32;;;;;;;;;;;;;;;;;;6229017;22;20024;-89
2023/01/17 18:50:43;;;;;;;;;;;;;;;;;;6186288;22;19919;-92
2023/01/17 19:47:42;;;;;;;;;;;;;;;;;;;;;
2023/01/17 20:16:50;;;;;;;;;;;;;;;;;;6320883;22;19922;-83
2023/01/17 20:19:16;;;;;;;;;;;;;;;;;;6291175;22;20093;-83
2023/01/17 20:21:44;;;;;;;;;;;;;;;;;;6262533;22;19933;-83
2023/01/17 20:33:39;;;;;;;;;;;;;;;;;;6330523;22;19949;-82
2023/01/17 20:36:37;;;;;;;;;;;;;;;;;;;;;
2023/01/17 20:45:16;;;;;;;;;;;;;;;;;;;;;
2023/01/17 20:48:03;;;;;;;;;;;;;;;;;;6333604;22;20389;-82
2023/01/17 20:50:29;;;;;;;;;;;;;;;;;;6268072;22;19964;-83
2023/01/17 20:53:14;;;;;;;;;;;;;;;;;;6292991;22;19918;-83
2023/01/17 20:55:43;;;;;;;;;;;;;;;;;;6292440;22;20005;-83
2023/01/17 20:58:09;;;;;;;;;;;;;;;;;;6288079;22;20350;-84
2023/01/17 21:00:36;;;;;;;;;;;;;;;;;;6286332;22;20191;-83
2023/01/17 21:03:02;;;;;;;;;;;;;;;;;;6287058;22;19926;-83
2023/01/17 21:05:35;;;;;;;;;;;;;;;;;;6265185;22;19919;-83
2023/01/17 21:11:14;;;;;;;;;;;;;;;;;;6301284;22;19918;-83
2023/01/17 21:19:48;;;;;;;;;;;;;;;;;;6290074;22;20316;-83
2023/01/17 21:22:17;;;;;;;;;;;;;;;;;;6265159;22;20005;-83
2023/01/17 21:24:43;;;;;;;;;;;;;;;;;;6265316;22;19925;-83
2023/01/17 21:27:11;;;;;;;;;;;;;;;;;;6265088;22;19918;-83
2023/01/17 21:29:37;;;;;;;;;;;;;;;;;;6264663;22;19919;-83
2023/01/17 21:32:07;;;;;;;;;;;;;;;;;;6286771;22;19922;-83